sensor_id;sensor_type;location;lat;lon;timestamp;pressure;altitude;pressure_sealevel;temperature;humidity
71857;BME280;63344;46.980;28.882;2023-09-19T00:02:23;101185.25;;;14.55;75.74
71857;BME280;63344;46.980;28.882;2023-09-19T00:05:18;101204.75;;;14.59;76.40
71857;BME280;63344;46.980;28.882;2023-09-19T00:07:55;101187.31;;;14.50;76.18
71857;BME280;63344;46.980;28.882;2023-09-19T00:10:35;101204.91;;;14.56;76.53
71857;BME280;63344;46.980;28.882;2023-09-19T00:13:08;101200.50;;;14.53;76.71
71857;BME280;63344;46.980;28.882;2023-09-19T00:15:44;101199.88;;;14.48;76.33
71857;BME280;63344;46.980;28.882;2023-09-19T00:18:20;101200.78;;;14.47;76.45
71857;BME280;63344;46.980;28.882;2023-09-19T00:20:58;101210.28;;;14.54;76.33
71857;BME280;63344;46.980;28.882;2023-09-19T00:23:33;101212.09;;;14.54;76.87
71857;BME280;63344;46.980;28.882;2023-09-19T00:26:04;101207.81;;;14.50;77.00
71857;BME280;63344;46.980;28.882;2023-09-19T00:28:37;101202.88;;;14.41;76.77
71857;BME280;63344;46.980;28.882;2023-09-19T00:31:32;101206.56;;;14.38;76.77
71857;BME280;63344;46.980;28.882;2023-09-19T00:34:10;101213.97;;;14.31;76.77
71857;BME280;63344;46.980;28.882;2023-09-19T00:36:39;101198.28;;;14.24;77.22
71857;BME280;63344;46.980;28.882;2023-09-19T00:39:25;101207.19;;;14.24;77.11
71857;BME280;63344;46.980;28.882;2023-09-19T00:42:01;101192.63;;;14.11;77.30
71857;BME280;63344;46.980;28.882;2023-09-19T00:44:36;101207.75;;;14.12;77.08
71857;BME280;63344;46.980;28.882;2023-09-19T00:47:13;101194.72;;;14.04;76.99
71857;BME280;63344;46.980;28.882;2023-09-19T00:49:54;101193.97;;;14.01;77.03
71857;BME280;63344;46.980;28.882;2023-09-19T00:52:38;101198.91;;;13.89;77.14
71857;BME280;63344;46.980;28.882;2023-09-19T00:55:29;101204.31;;;13.88;77.26
71857;BME280;63344;46.980;28.882;2023-09-19T00:57:58;101195.50;;;13.86;77.48
71857;BME280;63344;46.980;28.882;2023-09-19T01:00:38;101198.38;;;13.81;77.41
71857;BME280;63344;46.980;28.882;2023-09-19T01:03:31;101189.72;;;13.76;77.62
71857;BME280;63344;46.980;28.882;2023-09-19T01:06:15;101177.94;;;13.60;78.11
71857;BME280;63344;46.980;28.882;2023-09-19T01:08:44;101192.78;;;13.67;78.88
71857;BME280;63344;46.980;28.882;2023-09-19T01:11:40;101190.09;;;13.67;79.45
71857;BME280;63344;46.980;28.882;2023-09-19T01:17:20;101182.22;;;13.64;79.61
71857;BME280;63344;46.980;28.882;2023-09-19T01:23:18;101190.56;;;13.56;79.29
71857;BME280;63344;46.980;28.882;2023-09-19T01:28:43;101179.41;;;13.46;78.98
71857;BME280;63344;46.980;28.882;2023-09-19T01:31:15;101171.78;;;13.37;79.22
71857;BME280;63344;46.980;28.882;2023-09-19T01:34:02;101158.84;;;13.26;79.14
71857;BME280;63344;46.980;28.882;2023-09-19T01:36:42;101186.34;;;13.28;79.06
71857;BME280;63344;46.980;28.882;2023-09-19T01:39:20;101178.44;;;13.25;79.14
71857;BME280;63344;46.980;28.882;2023-09-19T01:42:06;101175.97;;;13.21;79.23
71857;BME280;63344;46.980;28.882;2023-09-19T01:44:57;101176.97;;;13.18;79.58
71857;BME280;63344;46.980;28.882;2023-09-19T01:47:54;101155.06;;;13.10;79.37
71857;BME280;63344;46.980;28.882;2023-09-19T01:50:53;101150.88;;;13.04;79.54
71857;BME280;63344;46.980;28.882;2023-09-19T01:53:57;101169.16;;;13.13;79.87
71857;BME280;63344;46.980;28.882;2023-09-19T01:57:29;101170.16;;;13.11;80.35
71857;BME280;63344;46.980;28.882;2023-09-19T02:00:20;101154.44;;;13.03;80.31
71857;BME280;63344;46.980;28.882;2023-09-19T02:02:54;101164.81;;;13.11;80.90
71857;BME280;63344;46.980;28.882;2023-09-19T02:05:34;101158.97;;;13.01;80.59
71857;BME280;63344;46.980;28.882;2023-09-19T02:08:05;101146.34;;;13.06;81.92
71857;BME280;63344;46.980;28.882;2023-09-19T02:10:41;101147.19;;;13.07;81.54
71857;BME280;63344;46.980;28.882;2023-09-19T02:13:43;101160.41;;;13.10;81.49
71857;BME280;63344;46.980;28.882;2023-09-19T02:16:17;101148.06;;;13.07;81.67
71857;BME280;63344;46.980;28.882;2023-09-19T02:19:02;101140.06;;;13.07;81.62
71857;BME280;63344;46.980;28.882;2023-09-19T02:21:52;101140.06;;;13.07;81.61
71857;BME280;63344;46.980;28.882;2023-09-19T02:24:39;101117.97;;;13.04;81.86
71857;BME280;63344;46.980;28.882;2023-09-19T02:27:15;101120.47;;;13.08;82.07
71857;BME280;63344;46.980;28.882;2023-09-19T02:30:09;101129.41;;;13.07;82.68
71857;BME280;63344;46.980;28.882;2023-09-19T02:32:40;101118.44;;;12.93;83.86
71857;BME280;63344;46.980;28.882;2023-09-19T02:35:40;101120.78;;;13.01;85.79
71857;BME280;63344;46.980;28.882;2023-09-19T02:38:20;101115.41;;;13.02;85.18
71857;BME280;63344;46.980;28.882;2023-09-19T02:40:54;101115.16;;;13.08;85.66
71857;BME280;63344;46.980;28.882;2023-09-19T02:43:54;101119.47;;;13.11;84.78
71857;BME280;63344;46.980;28.882;2023-09-19T02:46:49;101115.81;;;13.13;84.93
71857;BME280;63344;46.980;28.882;2023-09-19T02:49:20;101107.06;;;13.10;84.99
71857;BME280;63344;46.980;28.882;2023-09-19T02:52:03;101108.81;;;13.11;84.71
71857;BME280;63344;46.980;28.882;2023-09-19T02:54:35;101097.41;;;13.07;84.70
71857;BME280;63344;46.980;28.882;2023-09-19T02:57:15;101113.94;;;13.15;84.56
71857;BME280;63344;46.980;28.882;2023-09-19T02:59:55;101112.22;;;13.14;84.87
71857;BME280;63344;46.980;28.882;2023-09-19T03:02:24;101090.34;;;13.06;85.23
71857;BME280;63344;46.980;28.882;2023-09-19T03:04:59;101101.13;;;13.03;84.78
71857;BME280;63344;46.980;28.882;2023-09-19T03:07:33;101102.94;;;13.03;84.66
71857;BME280;63344;46.980;28.882;2023-09-19T03:10:01;101099.78;;;12.93;84.78
71857;BME280;63344;46.980;28.882;2023-09-19T03:12:41;101105.22;;;12.90;84.42
71857;BME280;63344;46.980;28.882;2023-09-19T03:15:12;101115.06;;;12.88;84.35
71857;BME280;63344;46.980;28.882;2023-09-19T03:18:12;101114.25;;;12.86;84.40
71857;BME280;63344;46.980;28.882;2023-09-19T03:20:42;101114.25;;;12.86;84.45
71857;BME280;63344;46.980;28.882;2023-09-19T03:23:21;101104.59;;;12.83;84.88
71857;BME280;63344;46.980;28.882;2023-09-19T03:25:58;101102.13;;;12.79;85.24
71857;BME280;63344;46.980;28.882;2023-09-19T03:28:34;101117.06;;;12.83;84.90
71857;BME280;63344;46.980;28.882;2023-09-19T03:31:05;101113.59;;;12.81;84.68
71857;BME280;63344;46.980;28.882;2023-09-19T03:33:36;101102.38;;;12.72;84.80
71857;BME280;63344;46.980;28.882;2023-09-19T03:36:11;101108.63;;;12.71;84.71
71857;BME280;63344;46.980;28.882;2023-09-19T03:38:45;101119.47;;;12.67;84.70
71857;BME280;63344;46.980;28.882;2023-09-19T03:41:33;101125.81;;;12.64;84.65
71857;BME280;63344;46.980;28.882;2023-09-19T03:44:20;101118.06;;;12.58;84.68
71857;BME280;63344;46.980;28.882;2023-09-19T03:46:55;101115.50;;;12.55;84.55
71857;BME280;63344;46.980;28.882;2023-09-19T03:49:29;101115.84;;;12.46;84.71
71857;BME280;63344;46.980;28.882;2023-09-19T03:52:06;101117.66;;;12.45;84.60
71857;BME280;63344;46.980;28.882;2023-09-19T03:54:47;101114.22;;;12.42;84.89
71857;BME280;63344;46.980;28.882;2023-09-19T03:57:32;101121.94;;;12.49;85.06
71857;BME280;63344;46.980;28.882;2023-09-19T04:00:14;101106.06;;;12.46;85.05
71857;BME280;63344;46.980;28.882;2023-09-19T04:03:12;101110.88;;;12.60;85.45
71857;BME280;63344;46.980;28.882;2023-09-19T04:06:25;101107.00;;;12.67;85.54
71857;BME280;63344;46.980;28.882;2023-09-19T04:09:49;101104.91;;;12.75;86.00
71857;BME280;63344;46.980;28.882;2023-09-19T04:13:01;101109.88;;;12.85;85.95
71857;BME280;63344;46.980;28.882;2023-09-19T04:15:53;101100.81;;;12.89;85.74
71857;BME280;63344;46.980;28.882;2023-09-19T04:18:43;101096.03;;;12.97;86.21
71857;BME280;63344;46.980;28.882;2023-09-19T04:21:52;101100.16;;;13.26;86.96
71857;BME280;63344;46.980;28.882;2023-09-19T04:25:00;101103.34;;;13.77;88.43
71857;BME280;63344;46.980;28.882;2023-09-19T04:31:16;101098.09;;;14.72;89.82
71857;BME280;63344;46.980;28.882;2023-09-19T04:34:01;101090.63;;;14.79;87.61
71857;BME280;63344;46.980;28.882;2023-09-19T04:40:29;101106.38;;;14.85;84.24
71857;BME280;63344;46.980;28.882;2023-09-19T04:43:13;101102.91;;;14.83;83.29
71857;BME280;63344;46.980;28.882;2023-09-19T04:45:57;101108.03;;;14.87;82.70
71857;BME280;63344;46.980;28.882;2023-09-19T04:48:56;101104.50;;;14.87;82.19
71857;BME280;63344;46.980;28.882;2023-09-19T04:51:43;101103.72;;;14.85;82.31
71857;BME280;63344;46.980;28.882;2023-09-19T04:54:37;101097.50;;;14.84;81.92
71857;BME280;63344;46.980;28.882;2023-09-19T04:57:33;101104.75;;;15.00;81.24
71857;BME280;63344;46.980;28.882;2023-09-19T05:00:57;101104.31;;;15.09;80.60
71857;BME280;63344;46.980;28.882;2023-09-19T05:03:37;101110.19;;;15.16;80.41
71857;BME280;63344;46.980;28.882;2023-09-19T05:06:37;101110.13;;;15.17;80.20
71857;BME280;63344;46.980;28.882;2023-09-19T05:09:25;101110.84;;;15.21;79.65
71857;BME280;63344;46.980;28.882;2023-09-19T05:12:22;101109.50;;;15.29;79.41
71857;BME280;63344;46.980;28.882;2023-09-19T05:26:04;101122.44;;;15.56;78.62
71857;BME280;63344;46.980;28.882;2023-09-19T05:28:53;101116.69;;;15.64;77.92
71857;BME280;63344;46.980;28.882;2023-09-19T05:31:53;101121.59;;;15.73;77.89
71857;BME280;63344;46.980;28.882;2023-09-19T05:34:34;101110.88;;;15.73;78.13
71857;BME280;63344;46.980;28.882;2023-09-19T05:41:10;101114.84;;;15.99;77.59
71857;BME280;63344;46.980;28.882;2023-09-19T05:44:23;101108.66;;;16.15;77.81
71857;BME280;63344;46.980;28.882;2023-09-19T05:47:21;101115.19;;;16.26;77.67
71857;BME280;63344;46.980;28.882;2023-09-19T05:50:23;101111.09;;;16.35;77.64
71857;BME280;63344;46.980;28.882;2023-09-19T05:53:09;101109.56;;;16.47;76.92
71857;BME280;63344;46.980;28.882;2023-09-19T06:03:57;101109.78;;;17.07;75.80
71857;BME280;63344;46.980;28.882;2023-09-19T06:06:56;101097.94;;;17.26;75.35
71857;BME280;63344;46.980;28.882;2023-09-19T06:13:40;101103.78;;;17.63;73.90
71857;BME280;63344;46.980;28.882;2023-09-19T06:16:40;101100.25;;;17.77;73.83
71857;BME280;63344;46.980;28.882;2023-09-19T06:19:25;101104.25;;;17.85;72.81
71857;BME280;63344;46.980;28.882;2023-09-19T06:22:14;101094.75;;;17.94;72.56
71857;BME280;63344;46.980;28.882;2023-09-19T06:28:58;101097.72;;;18.18;71.90
71857;BME280;63344;46.980;28.882;2023-09-19T06:31:42;101091.09;;;18.24;71.54
71857;BME280;63344;46.980;28.882;2023-09-19T06:34:22;101087.25;;;18.28;71.29
71857;BME280;63344;46.980;28.882;2023-09-19T06:37:21;101102.41;;;18.43;70.33
71857;BME280;63344;46.980;28.882;2023-09-19T06:47:57;101104.03;;;18.73;68.60
71857;BME280;63344;46.980;28.882;2023-09-19T06:51:01;101097.25;;;18.82;68.36
71857;BME280;63344;46.980;28.882;2023-09-19T06:57:37;101088.38;;;19.07;67.24
71857;BME280;63344;46.980;28.882;2023-09-19T07:00:39;101089.19;;;19.22;66.43
71857;BME280;63344;46.980;28.882;2023-09-19T07:18:13;101058.38;;;19.92;63.36
71857;BME280;63344;46.980;28.882;2023-09-19T07:21:22;101041.59;;;20.12;62.18
71857;BME280;63344;46.980;28.882;2023-09-19T07:24:17;101045.66;;;20.30;61.71
71857;BME280;63344;46.980;28.882;2023-09-19T07:26:53;101033.97;;;20.43;60.82
71857;BME280;63344;46.980;28.882;2023-09-19T07:33:06;101025.59;;;20.72;60.34
71857;BME280;63344;46.980;28.882;2023-09-19T07:35:47;101019.16;;;20.85;59.91
71857;BME280;63344;46.980;28.882;2023-09-19T07:45:56;101023.19;;;21.26;58.95
71857;BME280;63344;46.980;28.882;2023-09-19T07:49:01;100992.50;;;21.27;58.73
71857;BME280;63344;46.980;28.882;2023-09-19T07:55:13;101003.13;;;21.64;56.93
71857;BME280;63344;46.980;28.882;2023-09-19T07:58:14;101008.19;;;21.80;56.55
71857;BME280;63344;46.980;28.882;2023-09-19T08:05:07;101015.03;;;22.18;55.75
71857;BME280;63344;46.980;28.882;2023-09-19T08:12:37;100987.19;;;22.82;51.75
71857;BME280;63344;46.980;28.882;2023-09-19T08:24:21;100992.22;;;27.14;42.48
71857;BME280;63344;46.980;28.882;2023-09-19T08:27:00;100993.78;;;27.69;40.42
71857;BME280;63344;46.980;28.882;2023-09-19T08:34:39;100970.59;;;28.58;36.93
71857;BME280;63344;46.980;28.882;2023-09-19T08:41:26;100985.38;;;28.39;36.73
71857;BME280;63344;46.980;28.882;2023-09-19T08:44:21;100979.34;;;28.28;37.58
71857;BME280;63344;46.980;28.882;2023-09-19T08:51:43;100966.91;;;27.04;38.89
71857;BME280;63344;46.980;28.882;2023-09-19T08:54:38;100958.59;;;26.88;38.38
71857;BME280;63344;46.980;28.882;2023-09-19T09:09:06;100960.66;;;30.81;32.11
71857;BME280;63344;46.980;28.882;2023-09-19T09:11:57;100966.41;;;32.07;29.60
71857;BME280;63344;46.980;28.882;2023-09-19T09:31:32;100941.72;;;34.32;24.21
71857;BME280;63344;46.980;28.882;2023-09-19T10:39:40;100876.09;;;27.72;30.33
71857;BME280;63344;46.980;28.882;2023-09-19T11:08:00;100846.56;;;26.73;33.47
71857;BME280;63344;46.980;28.882;2023-09-19T11:23:32;100821.50;;;26.69;34.13
71857;BME280;63344;46.980;28.882;2023-09-19T11:51:00;100779.16;;;26.83;34.30
71857;BME280;63344;46.980;28.882;2023-09-19T11:54:14;100777.44;;;26.82;34.53
71857;BME280;63344;46.980;28.882;2023-09-19T13:28:56;100713.63;;;26.58;38.44
71857;BME280;63344;46.980;28.882;2023-09-19T14:15:50;100684.91;;;25.94;37.39
71857;BME280;63344;46.980;28.882;2023-09-19T14:18:55;100682.94;;;26.04;37.08
71857;BME280;63344;46.980;28.882;2023-09-19T14:22:14;100691.47;;;26.09;37.04
71857;BME280;63344;46.980;28.882;2023-09-19T14:25:29;100678.91;;;26.08;37.19
71857;BME280;63344;46.980;28.882;2023-09-19T14:32:35;100676.63;;;26.03;37.17
71857;BME280;63344;46.980;28.882;2023-09-19T14:39:34;100682.94;;;25.86;37.58
71857;BME280;63344;46.980;28.882;2023-09-19T15:16:48;100692.25;;;24.74;36.23
71857;BME280;63344;46.980;28.882;2023-09-19T15:19:42;100698.28;;;24.68;36.46
71857;BME280;63344;46.980;28.882;2023-09-19T15:29:38;100698.34;;;24.49;36.64
71857;BME280;63344;46.980;28.882;2023-09-19T15:45:10;100725.13;;;24.24;36.24
71857;BME280;63344;46.980;28.882;2023-09-19T15:48:23;100717.00;;;24.14;36.75
71857;BME280;63344;46.980;28.882;2023-09-19T16:15:56;100723.81;;;23.40;38.65
71857;BME280;63344;46.980;28.882;2023-09-19T16:22:39;100719.09;;;23.23;39.20
71857;BME280;63344;46.980;28.882;2023-09-19T16:25:59;100726.78;;;23.18;39.31
71857;BME280;63344;46.980;28.882;2023-09-19T16:33:08;100728.28;;;23.01;39.55
71857;BME280;63344;46.980;28.882;2023-09-19T16:36:18;100725.53;;;22.91;40.28
71857;BME280;63344;46.980;28.882;2023-09-19T16:39:20;100733.75;;;22.80;40.65
71857;BME280;63344;46.980;28.882;2023-09-19T16:54:23;100747.66;;;22.44;41.58
71857;BME280;63344;46.980;28.882;2023-09-19T17:00:31;100741.69;;;22.41;41.98
71857;BME280;63344;46.980;28.882;2023-09-19T17:03:45;100747.47;;;22.36;42.90
71857;BME280;63344;46.980;28.882;2023-09-19T17:07:06;100748.72;;;22.32;43.51
71857;BME280;63344;46.980;28.882;2023-09-19T17:10:25;100743.59;;;22.29;44.20
71857;BME280;63344;46.980;28.882;2023-09-19T17:25:39;100734.13;;;22.23;45.31
71857;BME280;63344;46.980;28.882;2023-09-19T17:28:43;100731.66;;;22.20;45.69
71857;BME280;63344;46.980;28.882;2023-09-19T17:40:22;100708.84;;;22.13;46.27
71857;BME280;63344;46.980;28.882;2023-09-19T17:44:07;100707.66;;;22.06;46.55
71857;BME280;63344;46.980;28.882;2023-09-19T18:03:40;100726.00;;;21.81;46.93
71857;BME280;63344;46.980;28.882;2023-09-19T18:06:28;100727.69;;;21.82;47.04
71857;BME280;63344;46.980;28.882;2023-09-19T18:09:20;100724.41;;;21.79;46.96
71857;BME280;63344;46.980;28.882;2023-09-19T18:24:12;100711.22;;;21.53;48.10
71857;BME280;63344;46.980;28.882;2023-09-19T18:27:27;100702.91;;;21.45;48.24
71857;BME280;63344;46.980;28.882;2023-09-19T18:47:57;100702.47;;;21.17;50.39
71857;BME280;63344;46.980;28.882;2023-09-19T19:15:17;100711.81;;;20.91;53.50
71857;BME280;63344;46.980;28.882;2023-09-19T19:22:17;100701.88;;;20.80;53.62
71857;BME280;63344;46.980;28.882;2023-09-19T19:29:52;100712.91;;;20.77;54.51
71857;BME280;63344;46.980;28.882;2023-09-19T19:37:08;100718.97;;;20.69;55.17
71857;BME280;63344;46.980;28.882;2023-09-19T19:44:27;100722.25;;;20.61;55.51
71857;BME280;63344;46.980;28.882;2023-09-19T19:47:35;100735.75;;;20.61;55.89
71857;BME280;63344;46.980;28.882;2023-09-19T19:51:46;100724.44;;;20.56;56.12
71857;BME280;63344;46.980;28.882;2023-09-19T20:07:42;100715.22;;;20.47;56.88
71857;BME280;63344;46.980;28.882;2023-09-19T20:10:32;100720.75;;;20.46;56.82
71857;BME280;63344;46.980;28.882;2023-09-19T20:13:42;100724.44;;;20.45;56.69
71857;BME280;63344;46.980;28.882;2023-09-19T20:16:47;100722.06;;;20.40;57.58
71857;BME280;63344;46.980;28.882;2023-09-19T20:22:52;100717.69;;;20.39;57.45
71857;BME280;63344;46.980;28.882;2023-09-19T20:25:57;100709.06;;;20.34;57.44
71857;BME280;63344;46.980;28.882;2023-09-19T20:33:16;100706.13;;;20.26;57.75
71857;BME280;63344;46.980;28.882;2023-09-19T20:36:28;100717.53;;;20.29;58.40
71857;BME280;63344;46.980;28.882;2023-09-19T20:43:30;100715.81;;;20.17;59.04
71857;BME280;63344;46.980;28.882;2023-09-19T20:46:29;100730.88;;;20.20;58.86
71857;BME280;63344;46.980;28.882;2023-09-19T20:49:38;100713.44;;;20.13;59.39
71857;BME280;63344;46.980;28.882;2023-09-19T20:52:29;100724.63;;;20.19;59.28
71857;BME280;63344;46.980;28.882;2023-09-19T20:55:35;100720.56;;;20.14;59.49
71857;BME280;63344;46.980;28.882;2023-09-19T20:58:47;100732.47;;;20.11;59.51
71857;BME280;63344;46.980;28.882;2023-09-19T21:01:46;100738.59;;;20.13;59.49
71857;BME280;63344;46.980;28.882;2023-09-19T21:04:26;100736.97;;;20.10;60.21
71857;BME280;63344;46.980;28.882;2023-09-19T21:07:03;100722.13;;;20.05;60.03
71857;BME280;63344;46.980;28.882;2023-09-19T21:09:56;100732.91;;;20.05;60.55
71857;BME280;63344;46.980;28.882;2023-09-19T21:12:32;100721.84;;;19.97;60.44
71857;BME280;63344;46.980;28.882;2023-09-19T21:15:07;100716.59;;;19.95;61.03
71857;BME280;63344;46.980;28.882;2023-09-19T21:17:44;100714.13;;;19.92;61.33
71857;BME280;63344;46.980;28.882;2023-09-19T21:20:17;100709.94;;;19.88;61.34
71857;BME280;63344;46.980;28.882;2023-09-19T21:23:02;100725.66;;;19.94;61.04
71857;BME280;63344;46.980;28.882;2023-09-19T21:25:56;100714.22;;;19.90;61.36
71857;BME280;63344;46.980;28.882;2023-09-19T21:28:56;100723.94;;;19.93;61.85
71857;BME280;63344;46.980;28.882;2023-09-19T21:31:59;100727.59;;;19.92;62.11
71857;BME280;63344;46.980;28.882;2023-09-19T21:35:02;100725.91;;;19.91;62.23
71857;BME280;63344;46.980;28.882;2023-09-19T21:38:07;100739.03;;;19.96;62.13
71857;BME280;63344;46.980;28.882;2023-09-19T21:41:08;100737.53;;;19.92;61.96
71857;BME280;63344;46.980;28.882;2023-09-19T21:51:22;100735.69;;;19.92;62.26
71857;BME280;63344;46.980;28.882;2023-09-19T21:54:16;100729.91;;;19.85;62.83
71857;BME280;63344;46.980;28.882;2023-09-19T21:57:34;100733.84;;;19.93;62.47
71857;BME280;63344;46.980;28.882;2023-09-19T22:00:52;100739.25;;;19.93;62.86
71857;BME280;63344;46.980;28.882;2023-09-19T22:03:36;100723.03;;;19.81;62.80
71857;BME280;63344;46.980;28.882;2023-09-19T22:06:37;100740.22;;;19.92;62.75
71857;BME280;63344;46.980;28.882;2023-09-19T22:09:51;100732.16;;;19.92;63.02
71857;BME280;63344;46.980;28.882;2023-09-19T22:12:20;100731.41;;;19.89;63.12
71857;BME280;63344;46.980;28.882;2023-09-19T22:15:03;100727.84;;;19.89;63.06
71857;BME280;63344;46.980;28.882;2023-09-19T22:17:49;100728.81;;;19.88;63.61
71857;BME280;63344;46.980;28.882;2023-09-19T22:20:33;100725.28;;;19.87;63.39
71857;BME280;63344;46.980;28.882;2023-09-19T22:23:16;100722.69;;;19.86;63.58
71857;BME280;63344;46.980;28.882;2023-09-19T22:25:47;100717.66;;;19.81;63.67
71857;BME280;63344;46.980;28.882;2023-09-19T22:28:27;100730.66;;;19.87;63.21
71857;BME280;63344;46.980;28.882;2023-09-19T22:31:15;100727.44;;;19.82;63.53
71857;BME280;63344;46.980;28.882;2023-09-19T22:33:57;100731.63;;;19.86;63.95
71857;BME280;63344;46.980;28.882;2023-09-19T22:36:36;100726.47;;;19.83;63.84
71857;BME280;63344;46.980;28.882;2023-09-19T22:39:43;100733.34;;;19.87;64.14
71857;BME280;63344;46.980;28.882;2023-09-19T22:42:22;100732.47;;;19.87;63.90
71857;BME280;63344;46.980;28.882;2023-09-19T22:45:09;100731.50;;;19.88;64.30
71857;BME280;63344;46.980;28.882;2023-09-19T22:48:05;100728.94;;;19.86;63.91
71857;BME280;63344;46.980;28.882;2023-09-19T22:50:45;100730.78;;;19.86;64.50
71857;BME280;63344;46.980;28.882;2023-09-19T22:53:33;100727.84;;;19.89;64.92
71857;BME280;63344;46.980;28.882;2023-09-19T22:56:13;100728.28;;;19.83;64.83
71857;BME280;63344;46.980;28.882;2023-09-19T22:58:52;100724.63;;;19.84;64.87
71857;BME280;63344;46.980;28.882;2023-09-19T23:02:00;100715.06;;;19.80;64.92
71857;BME280;63344;46.980;28.882;2023-09-19T23:04:37;100727.72;;;19.90;64.98
71857;BME280;63344;46.980;28.882;2023-09-19T23:07:36;100727.59;;;19.92;65.52
71857;BME280;63344;46.980;28.882;2023-09-19T23:10:10;100724.63;;;19.84;65.29
71857;BME280;63344;46.980;28.882;2023-09-19T23:12:56;100721.47;;;19.90;65.04
71857;BME280;63344;46.980;28.882;2023-09-19T23:15:39;100733.63;;;19.96;65.49
71857;BME280;63344;46.980;28.882;2023-09-19T23:18:16;100722.47;;;19.89;65.36
71857;BME280;63344;46.980;28.882;2023-09-19T23:20:50;100745.03;;;19.99;65.17
71857;BME280;63344;46.980;28.882;2023-09-19T23:23:45;100705.88;;;19.82;65.15
71857;BME280;63344;46.980;28.882;2023-09-19T23:26:28;100733.16;;;20.02;65.21
71857;BME280;63344;46.980;28.882;2023-09-19T23:29:19;100726.03;;;20.01;65.38
71857;BME280;63344;46.980;28.882;2023-09-19T23:32:03;100728.13;;;19.97;65.70
71857;BME280;63344;46.980;28.882;2023-09-19T23:34:50;100736.06;;;19.99;65.64
71857;BME280;63344;46.980;28.882;2023-09-19T23:37:26;100730.94;;;19.96;65.74
71857;BME280;63344;46.980;28.882;2023-09-19T23:40:10;100729.56;;;19.90;66.05
71857;BME280;63344;46.980;28.882;2023-09-19T23:42:56;100740.44;;;19.88;66.28
71857;BME280;63344;46.980;28.882;2023-09-19T23:45:29;100723.50;;;19.75;66.75
71857;BME280;63344;46.980;28.882;2023-09-19T23:48:31;100742.88;;;19.80;67.08
71857;BME280;63344;46.980;28.882;2023-09-19T23:51:08;100728.34;;;19.70;67.46
71857;BME280;63344;46.980;28.882;2023-09-19T23:53:44;100728.56;;;19.67;67.54
71857;BME280;63344;46.980;28.882;2023-09-19T23:56:19;100734.94;;;19.66;67.89
71857;BME280;63344;46.980;28.882;2023-09-19T23:58:52;100734.19;;;19.64;68.28
